createdAt,value
2022-11-22T08:36:41.018Z,12.65
2022-11-22T08:39:08.956Z,12.33
2022-11-22T09:29:13.829Z,18.00
2022-11-22T09:34:26.251Z,12.40
2022-11-22T09:36:53.584Z,11.15
2022-11-22T09:56:54.671Z,13.43
2022-11-22T10:13:54.402Z,10.60
2022-11-22T10:16:31.133Z,13.85
2022-11-22T10:21:57.276Z,12.33
2022-11-22T10:24:24.658Z,13.10
2022-11-22T10:26:58.228Z,12.43
2022-11-22T10:29:36.755Z,15.77
2022-11-22T10:32:06.884Z,14.32
2022-11-22T10:34:56.065Z,13.03
2022-11-22T10:38:01.692Z,13.55
2022-11-22T10:43:42.422Z,13.82
2022-11-22T11:01:03.570Z,18.80
2022-11-22T11:10:10.122Z,13.10
2022-11-22T11:18:02.585Z,12.13
2022-11-22T11:20:40.125Z,12.23
2022-11-22T11:23:16.593Z,11.48
2022-11-22T11:25:46.884Z,11.43
2022-11-22T11:28:25.793Z,13.65
2022-11-22T11:31:06.863Z,13.07
2022-11-22T11:33:37.447Z,11.68
2022-11-22T11:36:24.319Z,12.75
2022-11-22T11:38:56.247Z,11.77
2022-11-22T11:41:31.905Z,10.90
2022-11-22T11:44:01.648Z,12.73
2022-11-22T11:46:43.900Z,12.82
2022-11-22T11:49:11.510Z,12.85
2022-11-22T11:51:44.092Z,11.40
2022-11-22T11:54:21.343Z,12.95
2022-11-22T11:57:00.128Z,11.40
2022-11-22T11:59:39.668Z,11.77
2022-11-22T12:02:18.384Z,11.48
2022-11-22T12:04:54.536Z,12.60
2022-11-22T12:07:24.918Z,15.77
2022-11-22T12:09:54.410Z,15.47
2022-11-22T12:12:45.313Z,14.35
2022-11-22T12:15:41.043Z,19.00
2022-11-22T12:18:47.846Z,24.42
2022-11-22T12:22:09.528Z,25.83
2022-11-22T12:25:09.697Z,26.87
2022-11-22T12:27:37.734Z,25.90
2022-11-22T12:30:11.634Z,23.23
2022-11-22T12:33:03.614Z,28.58
2022-11-22T12:35:42.021Z,21.27
2022-11-22T12:38:20.645Z,18.83
2022-11-22T12:40:52.998Z,15.65
2022-11-22T12:43:46.589Z,14.27
2022-11-22T12:46:26.791Z,15.05
2022-11-22T12:49:12.556Z,11.82
2022-11-22T12:51:51.682Z,17.80
2022-11-22T12:54:32.680Z,12.95
2022-11-22T12:57:07.821Z,12.35
2022-11-22T12:59:58.963Z,13.63
2022-11-22T13:02:28.523Z,15.38
2022-11-22T13:05:14.460Z,11.97
2022-11-22T13:08:10.866Z,11.68
2022-11-22T13:10:42.701Z,15.02
2022-11-22T13:13:25.742Z,11.82
2022-11-22T13:15:59.448Z,11.32
2022-11-22T13:18:31.082Z,12.97
2022-11-22T13:21:22.344Z,14.00
2022-11-22T13:24:14.153Z,12.10
2022-11-22T13:26:48.018Z,13.65
2022-11-22T13:29:33.794Z,13.48
2022-11-22T13:32:12.415Z,12.17
2022-11-22T13:35:14.334Z,14.13
2022-11-22T13:37:47.633Z,13.82
2022-11-22T13:40:42.034Z,12.52
2022-11-22T13:43:21.524Z,13.07
2022-11-22T13:45:57.367Z,14.70
2022-11-22T13:48:41.678Z,12.23
2022-11-22T13:51:16.458Z,11.52
2022-11-22T13:53:45.465Z,12.23
2022-11-22T13:56:21.482Z,15.68
2022-11-22T13:58:51.149Z,17.00
2022-11-22T14:07:54.905Z,22.77
2022-11-22T14:10:55.039Z,21.77
2022-11-22T14:13:45.948Z,24.43
2022-11-22T14:16:34.968Z,19.25
2022-11-22T14:19:26.437Z,24.85
2022-11-22T14:22:26.940Z,32.17
2022-11-22T14:25:00.072Z,23.38
2022-11-22T14:27:42.182Z,26.07
2022-11-22T14:30:17.112Z,42.20
2022-11-22T14:33:00.224Z,34.28
2022-11-22T14:35:35.533Z,41.00
2022-11-22T14:38:32.814Z,40.25
2022-11-22T14:41:37.628Z,26.40
2022-11-22T14:44:10.574Z,23.55
2022-11-22T14:46:53.318Z,26.17
2022-11-22T14:49:33.155Z,44.45
2022-11-22T14:52:02.981Z,38.97
2022-11-22T14:54:45.661Z,30.20
2022-11-22T14:57:19.067Z,29.02
2022-11-22T14:59:54.784Z,28.80
2022-11-22T15:03:00.676Z,30.67
2022-11-22T15:09:21.190Z,27.30
2022-11-22T15:09:23.697Z,29.47
2022-11-22T15:11:34.440Z,34.67
2022-11-22T15:14:46.549Z,31.00
2022-11-22T15:57:33.609Z,49.92
2022-11-22T16:00:01.898Z,26.95
2022-11-22T16:02:32.459Z,48.15
2022-11-22T16:06:05.508Z,28.63
2022-11-22T16:07:51.609Z,25.88
2022-11-22T16:10:23.187Z,33.33
2022-11-22T16:12:51.002Z,90.28
2022-11-22T16:15:36.203Z,29.02
2022-11-22T16:18:26.366Z,23.87
2022-11-22T16:21:20.454Z,25.10
2022-11-22T16:24:15.162Z,30.88
2022-11-22T16:26:53.991Z,28.73
2022-11-22T16:29:35.747Z,27.10
2022-11-22T16:32:14.718Z,35.20
2022-11-22T16:34:43.035Z,33.08
2022-11-22T16:37:38.895Z,33.80
2022-11-22T16:40:08.339Z,30.40
2022-11-22T16:42:39.700Z,34.20
2022-11-22T16:45:14.393Z,32.93
2022-11-22T16:47:41.601Z,29.55
2022-11-22T16:50:13.425Z,25.65
2022-11-22T16:52:42.140Z,32.75
2022-11-22T16:55:17.581Z,34.92
2022-11-22T16:57:44.524Z,45.30
2022-11-22T17:00:12.675Z,29.25
2022-11-22T17:02:50.166Z,27.98
2022-11-22T17:05:17.347Z,37.03
2022-11-22T17:07:45.220Z,38.85
2022-11-22T17:10:12.562Z,45.40
2022-11-22T17:12:39.984Z,48.03
2022-11-22T17:15:10.938Z,46.75
2022-11-22T17:17:37.994Z,36.72
2022-11-22T17:20:05.577Z,37.40
2022-11-22T17:25:45.856Z,58.15
2022-11-22T17:28:16.673Z,45.70
2022-11-22T17:30:46.292Z,61.17
2022-11-22T17:33:13.797Z,60.00
2022-11-22T17:35:44.544Z,45.87
2022-11-22T17:38:12.647Z,45.80
2022-11-22T17:40:40.794Z,39.75
2022-11-22T17:43:08.468Z,38.80
2022-11-22T17:45:41.119Z,44.85
2022-11-22T17:48:08.124Z,65.77
2022-11-22T17:50:35.447Z,53.17
2022-11-22T17:53:03.182Z,30.58
2022-11-22T17:55:48.162Z,19.17
2022-11-22T17:58:18.127Z,17.73
2022-11-22T18:00:45.124Z,20.03
2022-11-22T18:03:14.456Z,18.05
2022-11-22T18:05:41.740Z,19.08
2022-11-22T18:08:08.705Z,16.55
2022-11-22T18:10:35.660Z,14.55
2022-11-22T18:13:21.580Z,13.27
2022-11-22T18:15:58.646Z,18.67
2022-11-22T18:18:54.959Z,57.95
2022-11-22T18:21:17.618Z,31.95
2022-11-22T18:23:45.084Z,29.75
2022-11-22T18:29:35.588Z,22.52
2022-11-22T18:31:52.213Z,16.10
2022-11-22T18:34:24.466Z,11.25
2022-11-22T18:37:07.005Z,20.58
2022-11-22T18:42:30.822Z,12.10
2022-11-22T18:44:59.003Z,19.40
2022-11-22T18:47:33.025Z,15.93
2022-11-22T18:50:08.346Z,8.85
2022-11-22T18:52:47.564Z,7.90
2022-11-22T18:55:14.719Z,8.80
2022-11-22T18:57:41.698Z,12.18
2022-11-22T19:00:18.922Z,10.02
2022-11-22T19:02:46.077Z,8.75
2022-11-22T19:05:24.388Z,10.30
2022-11-22T19:07:52.425Z,10.80
2022-11-22T19:10:21.042Z,13.95
2022-11-22T19:12:57.842Z,16.95
2022-11-22T19:16:08.163Z,15.98
2022-11-22T19:44:31.564Z,45.05
2022-11-22T19:49:17.780Z,30.87
2022-11-22T19:51:53.295Z,31.80
2022-11-22T19:55:04.335Z,32.03
2022-11-22T19:58:10.803Z,34.05
2022-11-22T20:01:35.178Z,18.08
2022-11-22T20:18:51.257Z,17.63
2022-11-22T20:27:18.157Z,15.48
2022-11-22T20:43:00.343Z,14.98
2022-11-22T20:51:19.965Z,20.15
2022-11-22T20:54:29.661Z,10.40
2022-11-22T21:09:30.445Z,10.07
2022-11-22T21:15:03.602Z,10.20
2022-11-22T21:17:55.633Z,9.83
2022-11-22T21:20:49.290Z,13.52
2022-11-22T21:23:44.706Z,13.20
2022-11-22T21:27:02.326Z,15.80
2022-11-22T21:29:45.985Z,12.25
2022-11-22T21:38:03.830Z,13.68
2022-11-22T21:41:44.587Z,13.27
2022-11-22T21:44:29.463Z,12.10
2022-11-22T22:11:01.925Z,7.40
2022-11-22T22:13:43.245Z,9.38
2022-11-22T22:19:32.378Z,7.47
2022-11-22T22:22:18.086Z,8.43
2022-11-22T22:29:12.405Z,8.30
2022-11-22T22:34:22.898Z,10.57
2022-11-22T22:39:46.317Z,5.22
2022-11-22T22:42:26.785Z,7.53
2022-11-22T22:45:17.605Z,9.10
2022-11-22T22:48:18.706Z,8.85
2022-11-22T22:50:49.445Z,8.43
2022-11-22T22:53:25.685Z,7.65
2022-11-22T22:59:29.399Z,5.87
2022-11-22T23:01:41.415Z,6.93
2022-11-22T23:04:21.788Z,6.88
2022-11-22T23:09:36.282Z,6.07
2022-11-22T23:12:04.574Z,9.77
2022-11-22T23:17:15.085Z,9.80
2022-11-22T23:25:57.606Z,11.27
2022-11-22T23:28:50.563Z,12.70
2022-11-22T23:31:34.565Z,12.93
2022-11-22T23:37:17.441Z,7.22
2022-11-22T23:42:39.689Z,6.93
2022-11-22T23:45:32.200Z,10.38
2022-11-22T23:51:04.353Z,11.80
2022-11-22T23:53:40.101Z,8.13
2022-11-22T23:56:10.727Z,10.63
2022-11-22T23:58:49.969Z,7.85
